createdAt,value
2018-12-19T00:02:56.453Z,100375.27
2018-12-19T00:06:03.149Z,100376.44
2018-12-19T00:09:08.426Z,100374.66
2018-12-19T00:12:14.309Z,100372.92
2018-12-19T00:15:19.038Z,100375.45
2018-12-19T00:18:25.597Z,100376.84
2018-12-19T00:21:30.452Z,100374.69
2018-12-19T00:24:35.048Z,100374.89
2018-12-19T00:27:41.936Z,100375.69
2018-12-19T00:30:48.542Z,100373.98
2018-12-19T00:33:55.266Z,100380.27
2018-12-19T00:37:01.726Z,100384.05
2018-12-19T00:40:07.657Z,100377.30
2018-12-19T00:43:12.307Z,100376.72
2018-12-19T00:46:17.007Z,100375.00
2018-12-19T00:49:21.714Z,100378.92
2018-12-19T00:52:26.304Z,100376.63
2018-12-19T00:55:30.881Z,100377.64
2018-12-19T00:58:35.429Z,100377.23
2018-12-19T01:01:40.018Z,100372.59
2018-12-19T01:04:48.055Z,100373.55
2018-12-19T01:07:51.157Z,100374.20
2018-12-19T01:10:55.648Z,100377.58
2018-12-19T01:14:00.303Z,100372.09
2018-12-19T01:17:04.934Z,100371.41
2018-12-19T01:20:09.569Z,100366.56
2018-12-19T01:23:14.197Z,100370.00
2018-12-19T01:26:18.723Z,100370.23
2018-12-19T01:29:23.152Z,100364.67
2018-12-19T01:32:27.722Z,100373.95
2018-12-19T01:35:32.355Z,100366.52
2018-12-19T01:38:36.898Z,100370.07
2018-12-19T01:41:41.588Z,100372.64
2018-12-19T01:44:46.328Z,100367.66
2018-12-19T01:47:51.007Z,100368.61
2018-12-19T01:50:55.652Z,100368.80
2018-12-19T01:54:00.240Z,100371.27
2018-12-19T01:57:04.849Z,100369.06
2018-12-19T02:00:09.636Z,100367.05
2018-12-19T02:03:14.290Z,100363.13
2018-12-19T02:06:19.040Z,100362.84
2018-12-19T02:09:28.868Z,100365.72
2018-12-19T02:12:30.162Z,100356.17
2018-12-19T02:15:34.896Z,100361.56
2018-12-19T02:18:39.730Z,100365.69
2018-12-19T02:21:44.361Z,100353.53
2018-12-19T02:24:48.921Z,100357.41
2018-12-19T02:27:53.722Z,100354.16
2018-12-19T02:30:58.318Z,100353.06
2018-12-19T02:34:03.079Z,100349.98
2018-12-19T02:37:07.813Z,100349.09
2018-12-19T02:40:12.511Z,100347.00
2018-12-19T02:43:17.266Z,100355.66
2018-12-19T02:46:21.902Z,100351.98
2018-12-19T02:49:26.567Z,100353.06
2018-12-19T02:52:31.287Z,100352.17
2018-12-19T02:55:35.904Z,100356.14
2018-12-19T02:58:40.496Z,100352.41
2018-12-19T03:01:45.142Z,100358.98
2018-12-19T03:04:49.698Z,100359.55
2018-12-19T03:07:54.541Z,100355.94
2018-12-19T03:10:59.308Z,100356.53
2018-12-19T03:14:04.005Z,100363.30
2018-12-19T03:17:08.701Z,100358.34
2018-12-19T03:20:13.272Z,100350.97
2018-12-19T03:23:17.854Z,100357.78
2018-12-19T03:26:22.465Z,100364.23
2018-12-19T03:29:27.111Z,100363.31
2018-12-19T03:32:31.684Z,100364.63
2018-12-19T03:35:36.275Z,100368.21
2018-12-19T03:38:40.861Z,100376.69
2018-12-19T03:41:45.847Z,100371.93
2018-12-19T03:44:50.468Z,100373.68
2018-12-19T03:47:56.120Z,100373.89
2018-12-19T03:51:00.730Z,100376.86
2018-12-19T03:54:05.289Z,100369.23
2018-12-19T03:57:10.321Z,100380.81
2018-12-19T04:00:14.985Z,100384.15
2018-12-19T04:03:19.715Z,100383.52
2018-12-19T04:06:24.408Z,100391.60
2018-12-19T04:09:29.034Z,100391.17
2018-12-19T04:12:33.621Z,100395.78
2018-12-19T04:15:38.211Z,100395.64
2018-12-19T04:18:45.723Z,100402.94
2018-12-19T04:21:50.275Z,100403.38
2018-12-19T04:24:54.885Z,100405.30
2018-12-19T04:27:59.570Z,100410.25
2018-12-19T04:31:04.188Z,100414.02
2018-12-19T04:34:08.799Z,100411.69
2018-12-19T04:37:13.361Z,100420.52
2018-12-19T04:40:17.992Z,100421.23
2018-12-19T04:43:22.588Z,100426.59
2018-12-19T04:46:27.181Z,100430.19
2018-12-19T04:49:31.714Z,100428.38
2018-12-19T04:52:36.198Z,100435.34
2018-12-19T04:55:41.710Z,100435.68
2018-12-19T04:58:46.231Z,100437.48
2018-12-19T05:01:50.864Z,100443.16
2018-12-19T05:04:55.527Z,100450.79
2018-12-19T05:08:00.224Z,100445.17
2018-12-19T05:11:04.966Z,100446.47
2018-12-19T05:14:09.578Z,100449.28
2018-12-19T05:17:14.202Z,100453.30
2018-12-19T05:20:18.688Z,100455.89
2018-12-19T05:23:23.369Z,100452.87
2018-12-19T05:26:27.993Z,100458.36
2018-12-19T05:29:32.634Z,100463.83
2018-12-19T05:32:37.217Z,100470.34
2018-12-19T05:35:41.814Z,100468.70
2018-12-19T05:38:46.442Z,100470.94
2018-12-19T05:41:51.114Z,100474.09
2018-12-19T05:44:55.671Z,100486.45
2018-12-19T05:48:00.202Z,100481.00
2018-12-19T05:51:04.775Z,100486.81
2018-12-19T05:54:09.421Z,100489.13
2018-12-19T05:57:14.188Z,100485.27
2018-12-19T06:00:18.730Z,100488.13
2018-12-19T06:03:25.481Z,100494.13
2018-12-19T06:06:30.243Z,100489.34
2018-12-19T06:09:34.885Z,100494.75
2018-12-19T06:12:39.516Z,100492.27
2018-12-19T06:15:44.301Z,100486.21
2018-12-19T06:18:48.949Z,100491.26
2018-12-19T06:21:53.571Z,100487.22
2018-12-19T06:24:58.214Z,100485.97
2018-12-19T06:28:02.867Z,100491.36
2018-12-19T06:31:07.572Z,100494.23
2018-12-19T06:34:12.222Z,100493.45
2018-12-19T06:37:16.746Z,100492.59
2018-12-19T06:40:21.337Z,100497.55
2018-12-19T06:43:25.876Z,100494.80
2018-12-19T06:46:30.531Z,100498.75
2018-12-19T06:49:35.169Z,100501.47
2018-12-19T06:52:39.726Z,100501.94
2018-12-19T06:55:44.265Z,100507.50
2018-12-19T06:58:48.953Z,100507.73
2018-12-19T07:01:53.593Z,100515.16
2018-12-19T07:04:58.197Z,100512.44
2018-12-19T07:08:02.749Z,100518.33
2018-12-19T07:11:07.373Z,100517.98
2018-12-19T07:14:11.926Z,100524.87
2018-12-19T07:17:16.685Z,100530.33
2018-12-19T07:20:21.391Z,100530.68
2018-12-19T07:23:27.134Z,100533.79
2018-12-19T07:26:31.852Z,100538.55
2018-12-19T07:29:36.578Z,100536.19
2018-12-19T07:32:41.217Z,100548.58
2018-12-19T07:35:46.740Z,100551.91
2018-12-19T07:38:51.343Z,100552.78
2018-12-19T07:41:55.986Z,100554.72
2018-12-19T07:45:00.485Z,100553.68
2018-12-19T07:48:05.131Z,100556.57
2018-12-19T07:51:09.813Z,100550.60
2018-12-19T07:54:14.362Z,100557.47
2018-12-19T07:57:18.986Z,100557.92
2018-12-19T08:00:27.434Z,100560.58
2018-12-19T08:03:30.497Z,100562.08
2018-12-19T08:06:35.206Z,100567.70
2018-12-19T08:09:39.786Z,100579.73
2018-12-19T08:12:44.457Z,100572.37
2018-12-19T08:15:48.966Z,100579.33
2018-12-19T08:19:09.678Z,100579.25
2018-12-19T08:22:19.934Z,100588.95
2018-12-19T08:25:24.522Z,100583.97
2018-12-19T08:28:29.148Z,100587.41
2018-12-19T08:31:39.913Z,100584.89
2018-12-19T08:34:44.490Z,100586.26
2018-12-19T08:37:49.141Z,100585.63
2018-12-19T08:40:58.781Z,100586.18
2018-12-19T08:44:00.528Z,100586.69
2018-12-19T08:47:05.101Z,100580.67
2018-12-19T08:50:10.468Z,100584.14
2018-12-19T08:53:14.974Z,100577.55
2018-12-19T08:56:19.616Z,100579.87
2018-12-19T08:59:24.165Z,100575.54
2018-12-19T09:02:28.923Z,100567.26
2018-12-19T09:05:33.487Z,100560.83
2018-12-19T09:08:38.335Z,100551.32
2018-12-19T09:11:42.981Z,100555.94
2018-12-19T09:14:47.685Z,100550.30
2018-12-19T09:17:52.277Z,100543.00
2018-12-19T09:20:56.828Z,100553.22
2018-12-19T09:24:01.546Z,100537.77
2018-12-19T09:27:06.115Z,100533.73
2018-12-19T09:30:10.649Z,100535.56
2018-12-19T09:33:15.244Z,100533.16
2018-12-19T09:36:19.956Z,100534.77
2018-12-19T09:39:24.497Z,100532.83
2018-12-19T09:42:29.094Z,100537.44
2018-12-19T09:45:33.681Z,100536.70
2018-12-19T09:48:38.138Z,100529.06
2018-12-19T09:51:42.655Z,100526.61
2018-12-19T09:54:47.257Z,100523.60
2018-12-19T09:57:52.058Z,100516.06
2018-12-19T10:00:57.213Z,100518.73
2018-12-19T10:04:02.063Z,100513.05
2018-12-19T10:07:06.696Z,100517.66
2018-12-19T10:10:11.486Z,100517.61
2018-12-19T10:13:16.264Z,100510.98
2018-12-19T10:16:20.801Z,100498.50
2018-12-19T10:19:25.386Z,100501.75
2018-12-19T10:22:32.104Z,100501.75
2018-12-19T10:25:36.715Z,100499.98
2018-12-19T10:28:41.382Z,100502.59
2018-12-19T10:31:46.107Z,100495.27
2018-12-19T10:34:50.769Z,100498.70
2018-12-19T10:37:55.399Z,100501.08
2018-12-19T10:41:00.056Z,100495.27
2018-12-19T10:44:04.920Z,100487.30
2018-12-19T10:47:09.446Z,100488.45
2018-12-19T10:50:14.051Z,100480.63
2018-12-19T10:53:18.709Z,100480.56
2018-12-19T10:56:23.234Z,100483.52
2018-12-19T10:59:27.974Z,100481.97
2018-12-19T11:02:32.617Z,100476.85
2018-12-19T11:05:37.371Z,100474.80
2018-12-19T11:08:42.966Z,100487.84
2018-12-19T11:11:47.557Z,100484.73
2018-12-19T11:14:52.266Z,100475.73
2018-12-19T11:17:56.921Z,100470.78
2018-12-19T11:21:01.769Z,100466.70
2018-12-19T11:24:06.488Z,100470.20
2018-12-19T11:27:17.629Z,100458.45
2018-12-19T11:30:22.347Z,100462.61
2018-12-19T11:33:27.026Z,100461.11
2018-12-19T11:36:31.606Z,100459.75
2018-12-19T11:39:37.142Z,100466.34
2018-12-19T11:42:41.763Z,100460.48
2018-12-19T11:45:46.406Z,100454.25
2018-12-19T11:48:51.004Z,100457.27
2018-12-19T11:51:55.637Z,100448.54
2018-12-19T11:55:00.339Z,100449.22
2018-12-19T11:58:05.082Z,100442.97
2018-12-19T12:01:09.675Z,100449.22
2018-12-19T12:04:14.339Z,100449.42
2018-12-19T12:07:21.394Z,100445.67
2018-12-19T12:10:25.951Z,100454.34
2018-12-19T12:13:30.655Z,100453.03
2018-12-19T12:16:35.337Z,100452.88
2018-12-19T12:19:39.940Z,100448.09
2018-12-19T12:22:44.685Z,100449.45
2018-12-19T12:25:49.303Z,100448.78
2018-12-19T12:28:53.953Z,100446.97
2018-12-19T12:31:58.561Z,100451.27
2018-12-19T12:35:03.371Z,100448.23
2018-12-19T12:38:08.071Z,100446.18
2018-12-19T12:41:12.611Z,100447.63
2018-12-19T12:44:17.121Z,100449.74
2018-12-19T12:47:21.947Z,100453.51
2018-12-19T12:50:26.531Z,100456.91
2018-12-19T12:53:31.209Z,100454.52
2018-12-19T12:56:35.862Z,100454.73
2018-12-19T12:59:40.542Z,100453.53
2018-12-19T13:02:45.193Z,100451.98
2018-12-19T13:05:49.701Z,100448.91
2018-12-19T13:08:54.261Z,100449.62
2018-12-19T13:11:59.060Z,100455.86
2018-12-19T13:15:03.850Z,100452.23
2018-12-19T13:18:08.466Z,100444.91
2018-12-19T13:21:13.047Z,100449.22
2018-12-19T13:24:17.918Z,100453.22
2018-12-19T13:27:22.698Z,100453.27
2018-12-19T13:30:27.237Z,100451.48
2018-12-19T13:33:32.033Z,100455.70
2018-12-19T13:36:36.834Z,100452.20
2018-12-19T13:39:41.442Z,100457.92
2018-12-19T13:42:45.981Z,100460.08
2018-12-19T13:45:50.478Z,100464.50
2018-12-19T13:48:55.086Z,100473.46
2018-12-19T13:51:59.735Z,100477.07
2018-12-19T13:55:04.592Z,100476.95
2018-12-19T13:58:09.262Z,100482.44
2018-12-19T14:01:13.938Z,100487.87
2018-12-19T14:04:18.593Z,100489.05
2018-12-19T14:07:23.241Z,100490.66
2018-12-19T14:10:27.779Z,100496.08
2018-12-19T14:13:32.458Z,100493.16
2018-12-19T14:16:36.953Z,100497.88
2018-12-19T14:19:41.562Z,100496.65
2018-12-19T14:22:46.209Z,100501.74
2018-12-19T14:25:51.189Z,100500.36
2018-12-19T14:28:55.809Z,100493.08
2018-12-19T14:32:00.409Z,100497.63
2018-12-19T14:35:05.253Z,100498.20
2018-12-19T14:38:09.853Z,100501.84
2018-12-19T14:41:14.533Z,100507.59
2018-12-19T14:44:19.217Z,100508.14
2018-12-19T14:47:23.908Z,100507.52
2018-12-19T14:50:28.502Z,100504.75
2018-12-19T14:53:33.091Z,100517.20
2018-12-19T14:56:37.652Z,100514.41
2018-12-19T14:59:42.260Z,100514.09
2018-12-19T15:02:46.989Z,100522.74
2018-12-19T15:05:51.606Z,100521.64
2018-12-19T15:08:56.191Z,100528.44
2018-12-19T15:12:00.942Z,100535.95
2018-12-19T15:15:06.890Z,100530.50
2018-12-19T15:18:11.580Z,100539.64
2018-12-19T15:21:16.189Z,100533.81
2018-12-19T15:24:20.814Z,100543.00
2018-12-19T15:27:25.364Z,100542.73
2018-12-19T15:30:29.895Z,100546.19
2018-12-19T15:33:34.561Z,100543.20
2018-12-19T15:36:39.334Z,100550.81
2018-12-19T15:39:43.963Z,100553.97
2018-12-19T15:42:48.652Z,100561.19
2018-12-19T15:45:53.270Z,100556.65
2018-12-19T15:48:57.991Z,100562.10
2018-12-19T15:52:02.647Z,100566.56
2018-12-19T15:55:07.331Z,100560.45
2018-12-19T15:58:12.005Z,100566.56
2018-12-19T16:01:16.581Z,100569.69
2018-12-19T16:04:21.131Z,100567.47
2018-12-19T16:07:25.808Z,100564.48
2018-12-19T16:10:30.461Z,100572.38
2018-12-19T16:13:35.222Z,100568.39
2018-12-19T16:16:39.884Z,100573.39
2018-12-19T16:19:44.341Z,100584.48
2018-12-19T16:22:48.845Z,100580.13
2018-12-19T16:25:53.376Z,100591.81
2018-12-19T16:28:58.017Z,100600.70
2018-12-19T16:32:02.776Z,100601.14
2018-12-19T16:35:07.846Z,100606.89
2018-12-19T16:38:12.580Z,100607.94
2018-12-19T16:41:17.253Z,100606.41
2018-12-19T16:44:22.316Z,100612.07
2018-12-19T16:47:26.921Z,100612.22
2018-12-19T16:50:31.522Z,100612.20
2018-12-19T16:53:36.257Z,100620.97
2018-12-19T16:56:40.978Z,100615.34
2018-12-19T16:59:45.556Z,100610.37
2018-12-19T17:02:50.162Z,100616.20
2018-12-19T17:05:54.823Z,100615.85
2018-12-19T17:09:00.590Z,100618.19
2018-12-19T17:12:07.271Z,100615.30
2018-12-19T17:15:11.910Z,100617.55
2018-12-19T17:18:16.504Z,100619.36
2018-12-19T17:21:21.142Z,100622.02
2018-12-19T17:24:30.875Z,100619.10
2018-12-19T17:27:35.538Z,100624.23
2018-12-19T17:30:40.130Z,100623.27
2018-12-19T17:33:44.662Z,100624.39
2018-12-19T17:36:49.237Z,100620.12
2018-12-19T17:39:53.884Z,100622.96
2018-12-19T17:42:59.533Z,100626.74
2018-12-19T17:46:04.439Z,100620.30
2018-12-19T17:49:09.098Z,100618.13
2018-12-19T17:52:13.809Z,100619.75
2018-12-19T17:55:18.393Z,100624.62
2018-12-19T17:58:23.042Z,100627.83
2018-12-19T18:01:27.646Z,100635.49
2018-12-19T18:04:32.253Z,100638.30
2018-12-19T18:07:36.860Z,100643.30
2018-12-19T18:10:41.504Z,100642.70
2018-12-19T18:13:46.172Z,100643.36
2018-12-19T18:16:50.933Z,100640.74
2018-12-19T18:19:55.584Z,100644.10
2018-12-19T18:23:00.231Z,100651.48
2018-12-19T18:26:04.944Z,100648.33
2018-12-19T18:29:09.537Z,100651.09
2018-12-19T18:32:14.311Z,100645.81
2018-12-19T18:35:19.252Z,100646.93
2018-12-19T18:38:23.884Z,100648.58
2018-12-19T18:41:28.438Z,100651.41
2018-12-19T18:44:33.306Z,100642.29
2018-12-19T18:47:38.031Z,100644.99
2018-12-19T18:50:42.790Z,100650.55
2018-12-19T18:53:47.386Z,100647.63
2018-12-19T18:56:51.973Z,100652.48
2018-12-19T18:59:56.595Z,100656.66
2018-12-19T19:03:01.272Z,100653.06
2018-12-19T19:06:05.951Z,100645.45
2018-12-19T19:09:10.554Z,100650.00
2018-12-19T19:12:15.412Z,100652.30
2018-12-19T19:15:20.009Z,100647.19
2018-12-19T19:18:24.613Z,100651.70
2018-12-19T19:21:29.312Z,100654.51
2018-12-19T19:24:33.987Z,100649.59
2018-12-19T19:27:38.597Z,100650.66
2018-12-19T19:30:43.226Z,100649.42
2018-12-19T19:33:47.803Z,100649.95
2018-12-19T19:36:52.531Z,100643.03
2018-12-19T19:39:57.484Z,100647.27
2018-12-19T19:43:02.102Z,100648.73
2018-12-19T19:46:06.676Z,100647.44
2018-12-19T19:49:11.382Z,100652.95
2018-12-19T19:52:15.986Z,100654.23
2018-12-19T19:55:20.589Z,100662.58
2018-12-19T19:58:25.384Z,100662.48
2018-12-19T20:01:30.118Z,100660.70
2018-12-19T20:04:34.761Z,100665.33
2018-12-19T20:07:39.370Z,100663.23
2018-12-19T20:10:44.066Z,100654.74
2018-12-19T20:13:48.648Z,100662.95
2018-12-19T20:16:58.373Z,100655.56
2018-12-19T20:20:03.037Z,100664.28
2018-12-19T20:23:07.594Z,100665.19
2018-12-19T20:26:12.189Z,100665.00
2018-12-19T20:29:16.837Z,100662.41
2018-12-19T20:32:21.558Z,100662.89
2018-12-19T20:35:26.133Z,100667.16
2018-12-19T20:38:31.734Z,100668.45
2018-12-19T20:41:36.361Z,100669.75
2018-12-19T20:44:41.018Z,100677.23
2018-12-19T20:47:45.726Z,100668.62
2018-12-19T20:50:50.330Z,100673.50
2018-12-19T20:53:56.051Z,100672.33
2018-12-19T20:57:00.770Z,100673.34
2018-12-19T21:00:06.790Z,100668.58
2018-12-19T21:03:11.794Z,100667.37
2018-12-19T21:06:16.457Z,100665.30
2018-12-19T21:09:21.118Z,100659.31
2018-12-19T21:12:25.722Z,100664.06
2018-12-19T21:15:30.308Z,100673.17
2018-12-19T21:18:40.378Z,100663.67
2018-12-19T21:21:44.997Z,100665.52
2018-12-19T21:24:49.545Z,100673.27
2018-12-19T21:27:54.241Z,100671.20
2018-12-19T21:30:58.894Z,100674.41
2018-12-19T21:34:03.667Z,100675.62
2018-12-19T21:37:08.257Z,100662.64
2018-12-19T21:40:13.981Z,100664.06
2018-12-19T21:43:18.750Z,100670.45
2018-12-19T21:46:23.381Z,100682.16
2018-12-19T21:49:28.124Z,100686.60
2018-12-19T21:52:32.740Z,100689.26
2018-12-19T21:55:37.475Z,100693.97
2018-12-19T21:58:42.371Z,100692.14
2018-12-19T22:01:46.994Z,100680.50
2018-12-19T22:04:51.653Z,100688.64
2018-12-19T22:07:56.516Z,100687.07
2018-12-19T22:11:01.310Z,100681.81
2018-12-19T22:14:06.245Z,100682.27
2018-12-19T22:17:15.854Z,100681.91
2018-12-19T22:20:20.434Z,100674.23
2018-12-19T22:23:24.981Z,100682.27
2018-12-19T22:26:30.970Z,100678.53
2018-12-19T22:29:35.992Z,100689.91
2018-12-19T22:32:40.585Z,100695.47
2018-12-19T22:35:45.150Z,100687.84
2018-12-19T22:38:49.776Z,100688.64
2018-12-19T22:41:54.377Z,100682.09
2018-12-19T22:44:58.908Z,100682.88
2018-12-19T22:48:03.483Z,100682.14
2018-12-19T22:51:08.185Z,100686.25
2018-12-19T22:54:12.823Z,100686.85
2018-12-19T22:57:17.403Z,100684.53
2018-12-19T23:00:22.341Z,100685.86
2018-12-19T23:03:34.173Z,100687.80
2018-12-19T23:06:38.907Z,100688.28
2018-12-19T23:09:43.598Z,100691.52
2018-12-19T23:12:48.389Z,100694.80
2018-12-19T23:15:53.063Z,100685.17
2018-12-19T23:19:03.138Z,100692.55
2018-12-19T23:22:13.468Z,100686.24
2018-12-19T23:25:23.750Z,100683.66
2018-12-19T23:28:30.439Z,100686.39
2018-12-19T23:31:35.566Z,100692.52
2018-12-19T23:34:40.225Z,100681.09
2018-12-19T23:37:45.000Z,100686.59
2018-12-19T23:40:49.660Z,100681.54
2018-12-19T23:43:54.460Z,100683.53
2018-12-19T23:46:59.324Z,100683.88
2018-12-19T23:50:04.184Z,100693.98
2018-12-19T23:53:08.754Z,100686.58
2018-12-19T23:56:13.273Z,100691.42
2018-12-19T23:59:17.940Z,100688.19
